Bernice Lind — WDC8364 — position and weather

sailwx.info

Track history (hours):
 
Tides and Currents Weather Stations Pressure Air Temp Water Temp Dewpoint Dewpoint Depression Visibility Wind Speed Wind Dir Waves Ship Positions

Bernice Lind

Owner: Riverview Equipment Company, LLC, Petaluma, CA. More information available from US FCC via Universal Licensing System and Coast Guard Vessel Documentation Center.

Last reported at 2016-Feb-02 15:26 UTC. Time now 2016-Feb-12 22:36 UTC.
Position N 38°02' W 122°09'.
Warning: this ship's position is 10 days out of date.

Length 20 m; draft 2.4 m.

Type: Towing. MMSI: 367085890.

Date/timePositionNaut miles runAvg speedWind from/ knotsBaromVisibWave heightAir tempDewpointWater temp
2016-Feb-02 15:26N 38°02' W 122°09'6 7.2
2016-Feb-02 14:34N 38°03' W 122°17'7 7.0
2016-Feb-02 13:33N 38°00' W 122°25'7 7.3
2016-Feb-02 12:34N 37°53' W 122°24'6 5.9
2016-Feb-02 11:34N 37°48' W 122°20'6 5.6
2016-Feb-02 10:33N 37°43' W 122°17'4 4.4
2016-Feb-02 09:33N 37°39' W 122°14'0 0.4
2016-Feb-02 08:33N 37°39' W 122°14'1 0.9
2016-Feb-02 07:34N 37°38' W 122°13'1 0.5
2016-Feb-02 06:34N 37°38' W 122°13'6 6.2
2016-Feb-02 05:34N 37°43' W 122°18'7 6.9
2016-Feb-02 04:34N 37°50' W 122°22'7 7.3
2016-Feb-02 03:34N 37°56' W 122°26'6 6.4
2016-Feb-02 02:34N 38°02' W 122°22'6 6.1
2016-Feb-02 01:34N 38°05' W 122°15'1 0.5
2016-Feb-02 00:21N 38°06' W 122°16'  
Track history (hours):
 
Tides and Currents Weather Stations Pressure Air Temp Water Temp Dewpoint Dewpoint Depression Visibility Wind Speed Wind Dir Waves Ship Positions

Bernice Lind

Owner: Riverview Equipment Company, LLC, Petaluma, CA. More information available from US FCC via Universal Licensing System and Coast Guard Vessel Documentation Center.

Last reported at 2016-Feb-02 15:26 UTC. Time now 2016-Feb-12 22:36 UTC.
Position N 38°02' W 122°09'.
Warning: this ship's position is 10 days out of date.

Length 20 m; draft 2.4 m.

Type: Towing. MMSI: 367085890.

Date/timePositionNaut miles runAvg speedWind from/ knotsBaromVisibWave heightAir tempDewpointWater temp
2016-Feb-02 15:26N 38°02' W 122°09'6 7.2
2016-Feb-02 14:34N 38°03' W 122°17'7 7.0
2016-Feb-02 13:33N 38°00' W 122°25'7 7.3
2016-Feb-02 12:34N 37°53' W 122°24'6 5.9
2016-Feb-02 11:34N 37°48' W 122°20'6 5.6
2016-Feb-02 10:33N 37°43' W 122°17'4 4.4
2016-Feb-02 09:33N 37°39' W 122°14'0 0.4
2016-Feb-02 08:33N 37°39' W 122°14'1 0.9
2016-Feb-02 07:34N 37°38' W 122°13'1 0.5
2016-Feb-02 06:34N 37°38' W 122°13'6 6.2
2016-Feb-02 05:34N 37°43' W 122°18'7 6.9
2016-Feb-02 04:34N 37°50' W 122°22'7 7.3
2016-Feb-02 03:34N 37°56' W 122°26'6 6.4
2016-Feb-02 02:34N 38°02' W 122°22'6 6.1
2016-Feb-02 01:34N 38°05' W 122°15'1 0.5
2016-Feb-02 00:21N 38°06' W 122°16'  

Dump ship's entire track history